createdAt,value
2022-11-04T00:02:09.321Z,67.57
2022-11-04T00:04:36.350Z,67.54
2022-11-04T00:07:23.051Z,67.26
2022-11-04T00:09:49.829Z,66.99
2022-11-04T00:12:25.578Z,66.70
2022-11-04T00:14:52.473Z,66.66
2022-11-04T00:17:19.606Z,66.46
2022-11-04T00:20:10.157Z,66.27
2022-11-04T00:22:56.671Z,66.12
2022-11-04T00:25:46.744Z,66.17
2022-11-04T00:28:37.629Z,66.01
2022-11-04T00:31:25.801Z,65.93
2022-11-04T00:33:54.657Z,66.04
2022-11-04T00:36:23.161Z,66.14
2022-11-04T00:38:50.103Z,66.07
2022-11-04T00:41:26.468Z,66.11
2022-11-04T00:43:55.546Z,66.45
2022-11-04T00:46:22.512Z,66.56
2022-11-04T00:48:49.504Z,66.81
2022-11-04T00:51:16.398Z,67.00
2022-11-04T00:53:43.211Z,67.47
2022-11-04T00:56:10.128Z,68.75
2022-11-04T00:58:37.161Z,69.83
2022-11-04T01:01:18.100Z,70.81
2022-11-04T01:03:49.101Z,72.64
2022-11-04T01:06:16.247Z,71.43
2022-11-04T01:08:43.148Z,71.73
2022-11-04T01:11:10.955Z,72.34
2022-11-04T01:13:38.985Z,71.86
2022-11-04T01:16:11.115Z,71.77
2022-11-04T01:18:38.259Z,72.26
2022-11-04T01:21:07.466Z,72.03
2022-11-04T01:23:35.225Z,72.05
2022-11-04T01:26:05.266Z,72.34
2022-11-04T01:28:32.266Z,71.95
2022-11-04T01:30:59.026Z,71.56
2022-11-04T01:33:25.828Z,71.35
2022-11-04T01:35:52.587Z,71.36
2022-11-04T01:38:19.404Z,71.15
2022-11-04T01:40:46.136Z,71.55
2022-11-04T01:43:21.386Z,71.63
2022-11-04T01:45:56.691Z,71.61
2022-11-04T01:48:32.152Z,71.45
2022-11-04T01:51:00.126Z,71.72
2022-11-04T01:53:34.833Z,71.83
2022-11-04T01:56:11.937Z,72.12
2022-11-04T01:58:51.174Z,72.28
2022-11-04T02:01:18.759Z,72.19
2022-11-04T02:04:18.453Z,72.53
2022-11-04T02:06:49.839Z,72.27
2022-11-04T02:09:18.476Z,72.27
2022-11-04T02:12:03.728Z,72.30
2022-11-04T02:14:31.398Z,72.35
2022-11-04T02:17:16.274Z,72.63
2022-11-04T02:19:48.733Z,72.75
2022-11-04T02:22:21.364Z,72.84
2022-11-04T02:24:57.165Z,72.33
2022-11-04T02:27:38.910Z,72.32
2022-11-04T02:30:21.116Z,72.44
2022-11-04T02:32:50.535Z,72.60
2022-11-04T02:35:32.119Z,72.58
2022-11-04T02:38:20.040Z,72.75
2022-11-04T02:41:00.524Z,72.74
2022-11-04T02:43:42.572Z,73.13
2022-11-04T02:46:33.765Z,72.91
2022-11-04T02:49:04.135Z,73.76
2022-11-04T02:51:43.580Z,72.94
2022-11-04T02:54:21.663Z,72.74
2022-11-04T02:56:51.595Z,72.34
2022-11-04T02:59:27.041Z,72.54
2022-11-04T03:01:57.138Z,72.43
2022-11-04T03:04:32.709Z,72.42
2022-11-04T03:07:02.110Z,72.20
2022-11-04T03:09:31.088Z,72.26
2022-11-04T03:12:06.540Z,72.18
2022-11-04T03:14:42.465Z,72.23
2022-11-04T03:17:28.103Z,72.21
2022-11-04T03:19:59.020Z,71.94
2022-11-04T03:22:29.862Z,71.96
2022-11-04T03:24:57.133Z,71.92
2022-11-04T03:27:51.252Z,72.39
2022-11-04T03:30:23.383Z,72.10
2022-11-04T03:32:58.572Z,72.23
2022-11-04T03:35:27.743Z,72.03
2022-11-04T03:37:55.018Z,72.26
2022-11-04T03:40:22.637Z,72.41
2022-11-04T03:43:07.891Z,72.52
2022-11-04T03:45:35.332Z,72.22
2022-11-04T03:48:02.453Z,72.21
2022-11-04T03:50:35.772Z,72.47
2022-11-04T03:53:02.584Z,72.71
2022-11-04T03:56:00.194Z,73.47
2022-11-04T03:58:48.615Z,73.79
2022-11-04T04:01:42.400Z,74.90
2022-11-04T04:04:28.168Z,75.39
2022-11-04T04:07:01.778Z,75.35
2022-11-04T04:09:34.823Z,75.92
2022-11-04T04:12:11.471Z,76.21
2022-11-04T04:14:46.746Z,77.07
2022-11-04T04:17:21.888Z,77.57
2022-11-04T04:19:56.270Z,78.02
2022-11-04T04:22:27.525Z,78.41
2022-11-04T04:25:15.719Z,78.50
2022-11-04T04:27:44.215Z,79.06
2022-11-04T04:30:14.296Z,79.56
2022-11-04T04:32:45.226Z,79.49
2022-11-04T04:35:30.795Z,79.60
2022-11-04T04:38:21.504Z,79.37
2022-11-04T04:41:18.424Z,79.54
2022-11-04T04:44:04.093Z,79.82
2022-11-04T04:46:32.883Z,79.72
2022-11-04T04:49:10.564Z,80.43
2022-11-04T04:51:47.633Z,80.15
2022-11-04T04:54:15.253Z,80.16
2022-11-04T04:56:42.103Z,80.19
2022-11-04T04:59:09.658Z,80.62
2022-11-04T05:01:36.777Z,80.62
2022-11-04T05:04:03.989Z,81.22
2022-11-04T05:06:33.076Z,81.08
2022-11-04T05:08:59.982Z,80.93
2022-11-04T05:11:27.398Z,80.83
2022-11-04T05:13:54.786Z,80.70
2022-11-04T05:16:22.034Z,80.81
2022-11-04T05:18:48.776Z,80.92
2022-11-04T05:21:16.595Z,80.63
2022-11-04T05:23:43.573Z,80.48
2022-11-04T05:26:10.417Z,80.66
2022-11-04T05:28:37.216Z,80.58
2022-11-04T05:31:05.843Z,80.41
2022-11-04T05:33:33.180Z,80.44
2022-11-04T05:36:07.617Z,80.57
2022-11-04T05:38:34.375Z,80.29
2022-11-04T05:41:02.412Z,80.17
2022-11-04T05:43:29.471Z,80.27
2022-11-04T05:45:58.710Z,80.41
2022-11-04T05:48:25.824Z,80.19
2022-11-04T05:50:52.643Z,80.21
2022-11-04T05:53:20.182Z,80.14
2022-11-04T05:55:47.271Z,80.33
2022-11-04T05:58:14.002Z,80.25
2022-11-04T06:00:40.909Z,79.85
2022-11-04T06:03:10.737Z,79.94
2022-11-04T06:05:40.492Z,79.90
2022-11-04T06:08:07.511Z,79.80
2022-11-04T06:10:34.784Z,79.65
2022-11-04T06:13:01.606Z,79.59
2022-11-04T06:15:28.375Z,79.57
2022-11-04T06:17:55.118Z,79.64
2022-11-04T06:20:22.011Z,79.39
2022-11-04T06:22:48.753Z,79.35
2022-11-04T06:25:15.602Z,79.22
2022-11-04T06:27:42.382Z,78.98
2022-11-04T06:30:09.873Z,78.96
2022-11-04T06:32:36.616Z,78.96
2022-11-04T06:35:03.371Z,79.10
2022-11-04T06:37:30.088Z,79.30
2022-11-04T06:39:56.839Z,79.33
2022-11-04T06:42:25.938Z,79.51
2022-11-04T06:44:52.895Z,79.57
2022-11-04T06:47:24.464Z,79.50
2022-11-04T06:49:51.654Z,79.48
2022-11-04T06:52:18.425Z,79.40
2022-11-04T06:54:45.169Z,79.46
2022-11-04T06:57:12.617Z,79.46
2022-11-04T06:59:39.790Z,79.51
2022-11-04T07:02:07.214Z,79.54
2022-11-04T07:04:34.100Z,79.43
2022-11-04T07:07:00.822Z,79.39
2022-11-04T07:09:27.568Z,79.02
2022-11-04T07:11:54.355Z,79.01
2022-11-04T07:14:21.115Z,78.91
2022-11-04T07:16:51.429Z,78.95
2022-11-04T07:19:18.363Z,79.08
2022-11-04T07:21:45.148Z,78.82
2022-11-04T07:24:11.938Z,78.66
2022-11-04T07:26:38.742Z,78.67
2022-11-04T07:29:06.840Z,78.47
2022-11-04T07:31:34.004Z,78.37
2022-11-04T07:34:00.842Z,78.41
2022-11-04T07:36:27.586Z,78.43
2022-11-04T07:38:54.580Z,78.27
2022-11-04T07:41:22.167Z,78.32
2022-11-04T07:43:52.955Z,78.57
2022-11-04T07:46:20.496Z,78.48
2022-11-04T07:48:47.566Z,78.66
2022-11-04T07:51:17.361Z,79.04
2022-11-04T07:53:44.527Z,79.17
2022-11-04T07:56:12.777Z,79.63
2022-11-04T07:58:40.684Z,79.83
2022-11-04T08:01:11.912Z,79.90
2022-11-04T08:03:38.886Z,79.83
2022-11-04T08:06:07.823Z,79.89
2022-11-04T08:08:35.216Z,80.22
2022-11-04T08:11:05.675Z,80.43
2022-11-04T08:13:35.411Z,80.64
2022-11-04T08:16:10.630Z,80.71
2022-11-04T08:18:37.427Z,80.69
2022-11-04T08:21:04.945Z,80.90
2022-11-04T08:23:32.789Z,80.87
2022-11-04T08:25:59.736Z,81.08
2022-11-04T08:28:27.256Z,80.59
2022-11-04T08:31:05.837Z,80.50
2022-11-04T08:33:33.871Z,80.43
2022-11-04T08:36:22.288Z,80.58
2022-11-04T08:38:49.327Z,80.54
2022-11-04T08:41:19.899Z,80.55
2022-11-04T08:43:47.673Z,80.67
2022-11-04T08:46:14.917Z,80.77
2022-11-04T08:48:42.888Z,80.73
2022-11-04T08:51:17.107Z,80.91
2022-11-04T08:53:44.224Z,80.68
2022-11-04T08:56:17.742Z,81.07
2022-11-04T08:58:44.684Z,80.97
2022-11-04T09:01:12.763Z,81.01
2022-11-04T09:03:41.554Z,81.02
2022-11-04T09:06:11.255Z,81.08
2022-11-04T09:08:39.437Z,81.46
2022-11-04T09:11:08.528Z,81.40
2022-11-04T09:13:39.622Z,81.22
2022-11-04T09:16:08.097Z,81.08
2022-11-04T09:18:34.843Z,81.46
2022-11-04T09:21:02.829Z,81.39
2022-11-04T09:23:29.561Z,81.34
2022-11-04T09:25:58.595Z,81.46
2022-11-04T09:28:26.115Z,81.77
2022-11-04T09:30:52.843Z,82.19
2022-11-04T09:33:19.653Z,82.74
2022-11-04T09:35:56.606Z,82.77
2022-11-04T09:38:24.816Z,82.52
2022-11-04T09:40:52.067Z,82.61
2022-11-04T09:43:44.826Z,82.39
2022-11-04T09:46:14.038Z,82.29
2022-11-04T09:48:56.986Z,82.38
2022-11-04T09:51:52.481Z,81.93
2022-11-04T09:54:22.948Z,82.21
2022-11-04T09:56:53.063Z,82.18
2022-11-04T09:59:33.015Z,82.43
2022-11-04T10:02:08.162Z,82.72
2022-11-04T10:04:52.280Z,82.59
2022-11-04T10:07:48.717Z,82.52
2022-11-04T10:10:30.238Z,82.60
2022-11-04T10:13:16.087Z,82.58
2022-11-04T10:16:04.275Z,82.45
2022-11-04T10:19:01.767Z,82.28
2022-11-04T10:22:13.602Z,82.61
2022-11-04T10:24:56.326Z,82.35
2022-11-04T10:27:27.470Z,81.89
2022-11-04T10:30:21.519Z,82.66
2022-11-04T10:32:51.595Z,82.49
2022-11-04T10:35:41.007Z,82.72
2022-11-04T10:38:27.741Z,82.59
2022-11-04T10:40:56.181Z,82.37
2022-11-04T10:43:37.635Z,82.32
2022-11-04T10:46:38.876Z,82.75
2022-11-04T10:49:28.632Z,82.33
2022-11-04T10:51:57.062Z,82.33
2022-11-04T10:54:26.890Z,82.56
2022-11-04T10:56:56.820Z,82.58
2022-11-04T10:59:30.379Z,82.76
2022-11-04T11:02:00.077Z,82.99
2022-11-04T11:04:36.351Z,82.98
2022-11-04T11:07:08.560Z,82.80
2022-11-04T11:09:43.067Z,82.61
2022-11-04T11:12:36.613Z,82.80
2022-11-04T11:14:59.627Z,82.79
2022-11-04T11:17:37.956Z,82.77
2022-11-04T11:20:14.944Z,82.74
2022-11-04T11:22:46.528Z,82.46
2022-11-04T11:25:22.368Z,82.23
2022-11-04T11:27:58.152Z,82.19
2022-11-04T11:30:35.161Z,81.97
2022-11-04T11:33:05.052Z,82.01
2022-11-04T11:35:42.319Z,81.93
2022-11-04T11:38:23.348Z,82.40
2022-11-04T11:41:22.854Z,83.16
2022-11-04T11:43:46.449Z,82.45
2022-11-04T11:46:13.640Z,82.32
2022-11-04T11:48:40.766Z,81.95
2022-11-04T11:51:07.630Z,81.86
2022-11-04T11:53:38.378Z,81.71
2022-11-04T11:56:59.101Z,81.94
2022-11-04T12:02:50.576Z,81.48
2022-11-04T12:11:39.676Z,81.48
2022-11-04T12:14:16.161Z,81.45
2022-11-04T12:17:04.916Z,81.54
2022-11-04T12:19:55.715Z,81.68
2022-11-04T12:22:43.722Z,81.37
2022-11-04T12:25:24.485Z,81.12
2022-11-04T12:27:59.197Z,80.81
2022-11-04T12:30:32.551Z,80.82
2022-11-04T12:33:27.878Z,80.78
2022-11-04T12:36:03.108Z,80.62
2022-11-04T12:38:41.731Z,80.81
2022-11-04T12:41:59.383Z,81.09
2022-11-04T12:44:47.667Z,80.90
2022-11-04T12:47:17.121Z,80.53
2022-11-04T12:50:21.221Z,81.07
2022-11-04T12:53:12.438Z,81.26
2022-11-04T12:56:05.954Z,81.02
2022-11-04T12:59:06.932Z,81.47
2022-11-04T13:01:41.597Z,81.13
2022-11-04T13:04:17.460Z,80.93
2022-11-04T13:06:58.366Z,80.96
2022-11-04T13:10:00.275Z,81.46
2022-11-04T13:12:42.682Z,80.75
2022-11-04T13:15:20.976Z,80.66
2022-11-04T13:17:58.767Z,80.78
2022-11-04T13:20:27.872Z,80.60
2022-11-04T13:23:03.286Z,80.37
2022-11-04T13:25:46.319Z,79.99
2022-11-04T13:28:15.607Z,79.79
2022-11-04T13:31:12.271Z,80.21
2022-11-04T13:33:50.777Z,80.37
2022-11-04T13:37:11.486Z,80.20
2022-11-04T13:39:57.733Z,80.31
2022-11-04T13:42:35.387Z,80.45
2022-11-04T13:45:20.640Z,80.65
2022-11-04T13:47:50.565Z,80.68
2022-11-04T13:50:34.455Z,80.95
2022-11-04T13:53:03.281Z,80.88
2022-11-04T13:55:30.272Z,80.56
2022-11-04T13:58:05.437Z,80.49
2022-11-04T14:00:33.695Z,80.19
2022-11-04T14:03:21.187Z,79.93
2022-11-04T14:06:00.163Z,79.88
2022-11-04T14:08:27.078Z,79.98
2022-11-04T14:10:53.767Z,79.66
2022-11-04T14:13:37.667Z,79.63
2022-11-04T14:16:10.468Z,79.20
2022-11-04T14:18:42.816Z,79.37
2022-11-04T14:21:14.758Z,79.15
2022-11-04T14:23:53.938Z,79.44
2022-11-04T14:26:42.988Z,79.39
2022-11-04T14:29:18.086Z,79.32
2022-11-04T14:31:50.329Z,79.35
2022-11-04T14:34:36.627Z,79.24
2022-11-04T14:37:15.621Z,79.12
2022-11-04T14:39:43.212Z,78.71
2022-11-04T14:42:13.663Z,78.78
2022-11-04T14:44:49.532Z,78.83
2022-11-04T14:47:25.516Z,78.91
2022-11-04T14:50:02.098Z,78.66
2022-11-04T14:52:38.049Z,78.62
2022-11-04T14:55:13.965Z,78.71
2022-11-04T14:57:46.245Z,78.78
2022-11-04T15:00:25.364Z,78.69
2022-11-04T15:06:04.898Z,78.41
2022-11-04T15:08:42.538Z,78.09
2022-11-04T15:11:43.895Z,77.70
2022-11-04T15:14:26.194Z,78.02
2022-11-04T15:16:57.849Z,77.96
2022-11-04T15:19:32.445Z,78.01
2022-11-04T15:22:02.373Z,77.65
2022-11-04T15:24:29.771Z,77.59
2022-11-04T15:27:03.071Z,77.99
2022-11-04T15:29:30.207Z,77.77
2022-11-04T15:32:00.239Z,78.04
2022-11-04T15:34:29.709Z,77.90
2022-11-04T15:37:00.444Z,78.19
2022-11-04T15:39:31.657Z,78.07
2022-11-04T15:42:22.166Z,77.93
2022-11-04T15:44:54.175Z,77.99
2022-11-04T15:47:29.071Z,78.12
2022-11-04T15:50:15.647Z,77.89
2022-11-04T15:52:50.662Z,77.56
2022-11-04T15:55:27.681Z,77.58
2022-11-04T15:57:55.745Z,77.65
2022-11-04T16:00:24.970Z,77.75
2022-11-04T16:02:58.249Z,77.71
2022-11-04T16:05:38.210Z,77.89
2022-11-04T16:08:27.791Z,77.93
2022-11-04T16:11:15.111Z,77.90
2022-11-04T16:13:43.417Z,77.94
2022-11-04T16:16:27.911Z,78.43
2022-11-04T16:18:57.486Z,78.27
2022-11-04T16:21:35.262Z,78.37
2022-11-04T16:24:15.835Z,78.52
2022-11-04T16:26:45.359Z,78.28
2022-11-04T16:29:25.633Z,78.44
2022-11-04T16:32:39.833Z,78.50
2022-11-04T16:35:24.005Z,78.63
2022-11-04T16:37:52.456Z,78.65
2022-11-04T16:40:21.735Z,78.64
2022-11-04T16:42:50.456Z,78.63
2022-11-04T16:45:22.402Z,78.66
2022-11-04T16:47:49.561Z,78.66
2022-11-04T16:50:17.494Z,78.79
2022-11-04T16:52:44.801Z,78.48
2022-11-04T16:55:13.465Z,78.82
2022-11-04T16:57:40.516Z,78.92
2022-11-04T17:00:08.371Z,78.90
2022-11-04T17:02:41.226Z,78.90
2022-11-04T17:05:09.020Z,78.87
2022-11-04T17:07:52.785Z,78.83
2022-11-04T17:10:25.825Z,78.71
2022-11-04T17:12:52.586Z,78.58
2022-11-04T17:15:19.464Z,78.81
2022-11-04T17:17:46.335Z,78.50
2022-11-04T17:20:20.520Z,78.32
2022-11-04T17:22:48.929Z,78.08
2022-11-04T17:25:27.797Z,78.17
2022-11-04T17:27:54.950Z,78.02
2022-11-04T17:30:24.598Z,78.21
2022-11-04T17:32:51.439Z,78.17
2022-11-04T17:35:18.788Z,78.40
2022-11-04T17:37:45.625Z,78.52
2022-11-04T17:40:16.945Z,78.37
2022-11-04T17:43:05.637Z,78.42
2022-11-04T17:45:37.034Z,78.23
2022-11-04T17:48:06.998Z,78.53
2022-11-04T17:50:34.010Z,78.52
2022-11-04T17:53:00.956Z,78.36
2022-11-04T17:55:28.036Z,78.44
2022-11-04T17:57:55.442Z,78.46
2022-11-04T18:00:26.051Z,78.35
2022-11-04T18:02:53.099Z,78.48
2022-11-04T18:05:20.432Z,78.67
2022-11-04T18:07:47.189Z,78.60
2022-11-04T18:10:14.085Z,78.33
2022-11-04T18:12:41.645Z,78.39
2022-11-04T18:15:11.656Z,78.24
2022-11-04T18:17:40.423Z,78.20
2022-11-04T18:20:13.924Z,78.27
2022-11-04T18:22:41.635Z,78.23
2022-11-04T18:25:09.663Z,78.15
2022-11-04T18:27:37.240Z,77.85
2022-11-04T18:30:05.197Z,77.83
2022-11-04T18:32:32.283Z,77.75
2022-11-04T18:34:59.398Z,77.63
2022-11-04T18:37:26.426Z,77.53
2022-11-04T18:39:53.226Z,77.74
2022-11-04T18:42:19.996Z,77.67
2022-11-04T18:44:46.780Z,77.50
2022-11-04T18:47:14.277Z,77.44
2022-11-04T18:49:41.020Z,77.25
2022-11-04T18:52:07.805Z,77.17
2022-11-04T18:54:34.628Z,77.31
2022-11-04T18:57:01.454Z,77.44
2022-11-04T18:59:28.233Z,77.28
2022-11-04T19:01:55.133Z,77.30
2022-11-04T19:04:22.241Z,77.19
2022-11-04T19:06:49.226Z,77.20
2022-11-04T19:09:46.001Z,76.93
2022-11-04T19:12:22.856Z,77.06
2022-11-04T19:14:49.680Z,77.35
2022-11-04T19:17:16.378Z,77.02
2022-11-04T19:19:43.309Z,77.32
2022-11-04T19:22:11.140Z,77.53
2022-11-04T19:24:39.055Z,77.55
2022-11-04T19:27:06.127Z,77.47
2022-11-04T19:29:33.099Z,77.94
2022-11-04T19:32:00.407Z,77.49
2022-11-04T19:34:27.243Z,77.55
2022-11-04T19:36:54.272Z,77.56
2022-11-04T19:39:21.049Z,77.47
2022-11-04T19:42:06.207Z,77.63
2022-11-04T19:44:33.106Z,77.55
2022-11-04T19:46:59.960Z,77.47
2022-11-04T19:49:31.226Z,77.77
2022-11-04T19:52:00.024Z,77.89
2022-11-04T19:54:28.410Z,77.70
2022-11-04T19:56:56.234Z,77.76
2022-11-04T19:59:22.961Z,78.02
2022-11-04T20:01:50.641Z,77.96
2022-11-04T20:04:17.583Z,77.86
2022-11-04T20:06:44.341Z,77.91
2022-11-04T20:09:11.210Z,77.96
2022-11-04T20:11:59.169Z,78.13
2022-11-04T20:14:27.731Z,78.18
2022-11-04T20:16:54.532Z,78.16
2022-11-04T20:19:23.040Z,78.49
2022-11-04T20:21:50.799Z,78.57
2022-11-04T20:24:17.985Z,78.83
2022-11-04T20:26:46.689Z,78.88
2022-11-04T20:29:16.139Z,78.80
2022-11-04T20:31:43.525Z,79.06
2022-11-04T20:34:12.482Z,79.04
2022-11-04T20:36:39.793Z,79.23
2022-11-04T20:39:10.155Z,79.44
2022-11-04T20:41:36.983Z,79.17
2022-11-04T20:44:04.238Z,79.11
2022-11-04T20:46:34.643Z,79.22
2022-11-04T20:49:03.085Z,79.85
2022-11-04T20:51:32.474Z,80.24
2022-11-04T20:54:01.422Z,80.05
2022-11-04T20:56:31.384Z,79.90
2022-11-04T20:59:00.035Z,80.09
2022-11-04T21:01:35.510Z,79.99
2022-11-04T21:04:15.145Z,79.61
2022-11-04T21:06:42.460Z,79.80
2022-11-04T21:09:12.030Z,79.95
2022-11-04T21:11:39.749Z,79.95
2022-11-04T21:14:13.348Z,80.04
2022-11-04T21:16:40.324Z,80.33
2022-11-04T21:19:07.899Z,80.68
2022-11-04T21:21:34.684Z,81.29
2022-11-04T21:24:05.194Z,81.79
2022-11-04T21:26:35.572Z,81.77
2022-11-04T21:29:06.293Z,81.73
2022-11-04T21:31:34.880Z,82.13
2022-11-04T21:34:02.124Z,82.04
2022-11-04T21:36:29.011Z,82.04
2022-11-04T21:38:56.540Z,82.08
2022-11-04T21:41:27.106Z,81.93
2022-11-04T21:43:58.936Z,81.77
2022-11-04T21:46:26.618Z,81.81
2022-11-04T21:48:54.896Z,81.56
2022-11-04T21:51:24.579Z,81.63
2022-11-04T21:53:51.654Z,81.68
2022-11-04T21:56:21.281Z,81.78
2022-11-04T21:58:48.038Z,81.62
2022-11-04T22:01:18.861Z,81.33
2022-11-04T22:03:54.012Z,81.35
2022-11-04T22:06:21.530Z,81.14
2022-11-04T22:08:53.918Z,81.35
2022-11-04T22:11:28.604Z,81.05
2022-11-04T22:14:07.490Z,81.77
2022-11-04T22:16:37.854Z,81.62
2022-11-04T22:19:06.670Z,81.34
2022-11-04T22:21:33.828Z,81.54
2022-11-04T22:24:00.932Z,81.86
2022-11-04T22:26:30.694Z,82.04
2022-11-04T22:28:57.941Z,81.58
2022-11-04T22:31:27.536Z,81.35
2022-11-04T22:33:55.999Z,81.64
2022-11-04T22:36:23.497Z,81.49
2022-11-04T22:38:50.595Z,81.38
2022-11-04T22:41:27.230Z,80.96
2022-11-04T22:43:55.189Z,80.97
2022-11-04T22:46:26.150Z,81.13
2022-11-04T22:48:52.981Z,80.73
2022-11-04T22:51:19.835Z,80.76
2022-11-04T22:53:51.280Z,80.92
2022-11-04T22:56:21.497Z,80.67
2022-11-04T22:58:48.493Z,80.78
2022-11-04T23:01:16.454Z,80.65
2022-11-04T23:03:43.636Z,80.55
2022-11-04T23:06:10.735Z,80.62
2022-11-04T23:08:48.425Z,80.45
2022-11-04T23:11:42.244Z,80.49
2022-11-04T23:14:32.681Z,80.33
2022-11-04T23:17:35.008Z,80.39
2022-11-04T23:20:21.250Z,80.89
2022-11-04T23:23:06.358Z,81.16
2022-11-04T23:25:33.533Z,80.95
2022-11-04T23:28:19.025Z,80.74
2022-11-04T23:30:47.211Z,80.69
2022-11-04T23:33:15.520Z,80.41
2022-11-04T23:36:06.641Z,80.20
2022-11-04T23:38:35.898Z,80.21
2022-11-04T23:41:24.809Z,79.89
2022-11-04T23:43:51.717Z,80.02
2022-11-04T23:46:42.704Z,80.23
2022-11-04T23:49:32.370Z,80.21
2022-11-04T23:52:21.218Z,80.69
2022-11-04T23:55:06.308Z,80.95
2022-11-04T23:57:51.604Z,81.01
